createdAt,value
2019-03-10T00:00:41.142Z,1004.88
2019-03-10T00:01:41.135Z,1004.89
2019-03-10T00:02:41.132Z,1004.89
2019-03-10T00:03:41.115Z,1004.87
2019-03-10T00:04:41.113Z,1004.84
2019-03-10T00:05:41.098Z,1004.87
2019-03-10T00:06:41.074Z,1004.84
2019-03-10T00:07:41.073Z,1004.78
2019-03-10T00:08:41.058Z,1004.78
2019-03-10T00:09:41.071Z,1004.80
2019-03-10T00:10:41.037Z,1004.75
2019-03-10T00:11:41.019Z,1004.76
2019-03-10T00:12:41.017Z,1004.69
2019-03-10T00:13:41.018Z,1004.69
2019-03-10T00:14:40.984Z,1004.65
2019-03-10T00:15:40.973Z,1004.69
2019-03-10T00:16:40.961Z,1004.70
2019-03-10T00:17:40.961Z,1004.74
2019-03-10T00:18:40.946Z,1004.69
2019-03-10T00:19:40.945Z,1004.65
2019-03-10T00:20:40.916Z,1004.69
2019-03-10T00:21:40.905Z,1004.65
2019-03-10T00:22:40.925Z,1004.64
2019-03-10T00:23:40.885Z,1004.65
2019-03-10T00:24:40.872Z,1004.62
2019-03-10T00:25:40.859Z,1004.62
2019-03-10T00:26:40.877Z,1004.63
2019-03-10T00:27:40.839Z,1004.61
2019-03-10T00:28:40.849Z,1004.62
2019-03-10T00:29:40.815Z,1004.62
2019-03-10T00:30:40.802Z,1004.60
2019-03-10T00:31:40.841Z,1004.67
2019-03-10T00:32:40.781Z,1004.64
2019-03-10T00:33:40.782Z,1004.69
2019-03-10T00:34:40.759Z,1004.62
2019-03-10T00:35:40.753Z,1004.69
2019-03-10T00:36:40.740Z,1004.74
2019-03-10T00:37:40.723Z,1004.76
2019-03-10T00:38:40.731Z,1004.74
2019-03-10T00:39:40.701Z,1004.72
2019-03-10T00:40:40.694Z,1004.71
2019-03-10T00:41:40.686Z,1004.70
2019-03-10T00:42:40.678Z,1004.67
2019-03-10T00:43:40.677Z,1004.67
2019-03-10T00:44:40.648Z,1004.66
2019-03-10T00:45:40.634Z,1004.68
2019-03-10T00:46:40.621Z,1004.66
2019-03-10T00:47:40.613Z,1004.60
2019-03-10T00:48:40.619Z,1004.56
2019-03-10T00:49:40.603Z,1004.55
2019-03-10T00:50:40.585Z,1004.51
2019-03-10T00:51:40.566Z,1004.50
2019-03-10T00:52:40.557Z,1004.48
2019-03-10T00:53:40.564Z,1004.42
2019-03-10T00:54:40.537Z,1004.42
2019-03-10T00:55:40.531Z,1004.37
2019-03-10T00:56:40.508Z,1004.39
2019-03-10T00:57:40.497Z,1004.36
2019-03-10T00:58:40.513Z,1004.31
2019-03-10T00:59:40.476Z,1004.34
2019-03-10T01:00:40.479Z,1004.28
2019-03-10T01:01:40.452Z,1004.31
2019-03-10T01:02:40.442Z,1004.26
2019-03-10T01:03:40.431Z,1004.24
2019-03-10T01:04:40.431Z,1004.32
2019-03-10T01:05:40.410Z,1004.28
2019-03-10T01:06:40.397Z,1004.28
2019-03-10T01:07:40.390Z,1004.29
2019-03-10T01:08:40.377Z,1004.31
2019-03-10T01:09:40.385Z,1004.25
2019-03-10T01:10:40.358Z,1004.25
2019-03-10T01:11:40.340Z,1004.25
2019-03-10T01:12:40.332Z,1004.28
2019-03-10T01:13:40.321Z,1004.23
2019-03-10T01:14:40.321Z,1004.23
2019-03-10T01:15:40.294Z,1004.17
2019-03-10T01:16:40.283Z,1004.18
2019-03-10T01:17:40.271Z,1004.16
2019-03-10T01:18:40.266Z,1004.16
2019-03-10T01:19:40.262Z,1004.17
2019-03-10T01:20:40.238Z,1004.09
2019-03-10T01:21:40.245Z,1004.00
2019-03-10T01:22:40.245Z,1004.02
2019-03-10T01:23:40.208Z,1003.98
2019-03-10T01:24:40.216Z,1003.94
2019-03-10T01:25:40.183Z,1004.01
2019-03-10T01:26:40.171Z,1004.00
2019-03-10T01:27:40.162Z,1004.05
2019-03-10T01:28:40.148Z,1004.06
2019-03-10T01:29:40.144Z,1004.00
2019-03-10T01:30:40.154Z,1003.94
2019-03-10T01:31:40.115Z,1004.02
2019-03-10T01:32:40.106Z,1003.91
2019-03-10T01:33:40.111Z,1003.83
2019-03-10T01:34:40.088Z,1003.82
2019-03-10T01:35:40.081Z,1003.78
2019-03-10T01:36:40.059Z,1003.71
2019-03-10T01:37:40.046Z,1003.63
2019-03-10T01:38:40.038Z,1003.61
2019-03-10T01:39:40.022Z,1003.53
2019-03-10T01:40:40.026Z,1003.50
2019-03-10T01:41:40.001Z,1003.49
2019-03-10T01:42:39.999Z,1003.48
2019-03-10T01:43:39.985Z,1003.48
2019-03-10T01:44:39.968Z,1003.43
2019-03-10T01:45:39.966Z,1003.39
2019-03-10T01:46:39.953Z,1003.35
2019-03-10T01:47:39.936Z,1003.34
2019-03-10T01:48:39.922Z,1003.32
2019-03-10T01:49:39.913Z,1003.30
2019-03-10T01:50:39.913Z,1003.27
2019-03-10T01:51:39.894Z,1003.23
2019-03-10T01:52:39.874Z,1003.20
2019-03-10T01:53:39.874Z,1003.21
2019-03-10T01:54:39.856Z,1003.22
2019-03-10T01:55:39.862Z,1003.20
2019-03-10T01:56:39.829Z,1003.09
2019-03-10T01:57:39.818Z,1003.14
2019-03-10T01:58:39.810Z,1003.14
2019-03-10T01:59:39.795Z,1003.09
2019-03-10T02:00:39.800Z,1003.06
2019-03-10T02:01:39.776Z,1002.99
2019-03-10T02:02:39.763Z,1003.02
2019-03-10T02:03:39.754Z,1003.05
2019-03-10T02:04:39.742Z,1003.06
2019-03-10T02:05:39.747Z,1003.08
2019-03-10T02:06:39.715Z,1003.03
2019-03-10T02:07:39.706Z,1003.02
2019-03-10T02:08:39.694Z,1002.95
2019-03-10T02:09:39.692Z,1002.89
2019-03-10T02:10:39.683Z,1002.95
2019-03-10T02:11:39.678Z,1002.96
2019-03-10T02:12:39.649Z,1002.91
2019-03-10T02:13:39.638Z,1002.86
2019-03-10T02:14:39.624Z,1002.83
2019-03-10T02:15:39.614Z,1002.72
2019-03-10T02:16:39.612Z,1002.70
2019-03-10T02:17:39.592Z,1002.71
2019-03-10T02:18:39.579Z,1002.67
2019-03-10T02:19:39.576Z,1002.56
2019-03-10T02:20:39.559Z,1002.49
2019-03-10T02:21:39.561Z,1002.33
2019-03-10T02:22:39.535Z,1002.25
2019-03-10T02:23:39.522Z,1002.23
2019-03-10T02:24:39.512Z,1002.31
2019-03-10T02:25:39.501Z,1002.31
2019-03-10T02:26:39.502Z,1002.29
2019-03-10T02:27:39.479Z,1002.26
2019-03-10T02:28:39.466Z,1002.22
2019-03-10T02:29:39.454Z,1002.19
2019-03-10T02:30:39.447Z,1002.22
2019-03-10T02:31:39.445Z,1002.14
2019-03-10T02:32:39.421Z,1002.08
2019-03-10T02:33:39.413Z,1002.05
2019-03-10T02:34:39.424Z,1002.03
2019-03-10T02:35:39.388Z,1001.95
2019-03-10T02:36:39.389Z,1001.94
2019-03-10T02:37:39.373Z,1001.81
2019-03-10T02:38:39.367Z,1001.78
2019-03-10T02:39:39.346Z,1001.74
2019-03-10T02:40:39.330Z,1001.68
2019-03-10T02:41:39.332Z,1001.69
2019-03-10T02:42:39.309Z,1001.61
2019-03-10T02:43:39.300Z,1001.60
2019-03-10T02:44:39.287Z,1001.59
2019-03-10T02:45:39.286Z,1001.52
2019-03-10T02:46:39.282Z,1001.44
2019-03-10T02:47:39.251Z,1001.31
2019-03-10T02:48:39.245Z,1001.27
2019-03-10T02:49:39.235Z,1001.19
2019-03-10T02:50:39.222Z,1001.13
2019-03-10T02:51:39.215Z,1001.04
2019-03-10T02:52:39.216Z,1000.93
2019-03-10T02:53:39.185Z,1000.91
2019-03-10T02:54:39.172Z,1000.96
2019-03-10T02:55:39.163Z,1000.92
2019-03-10T02:56:39.165Z,1000.84
2019-03-10T02:57:39.167Z,1000.80
2019-03-10T02:58:39.127Z,1000.79
2019-03-10T02:59:39.128Z,1000.85
2019-03-10T03:00:39.105Z,1000.92
2019-03-10T03:01:39.097Z,1000.89
2019-03-10T03:02:39.092Z,1000.91
2019-03-10T03:03:39.070Z,1000.96
2019-03-10T03:04:39.058Z,1001.08
2019-03-10T03:05:39.046Z,1001.21
2019-03-10T03:06:39.054Z,1001.25
2019-03-10T03:07:39.064Z,1001.26
2019-03-10T03:08:39.022Z,1001.28
2019-03-10T03:09:39.003Z,1001.24
2019-03-10T03:10:38.991Z,1001.28
2019-03-10T03:11:38.978Z,1001.21
2019-03-10T03:12:38.985Z,1001.21
2019-03-10T03:13:38.964Z,1001.19
2019-03-10T03:14:38.950Z,1001.15
2019-03-10T03:15:38.943Z,1001.22
2019-03-10T03:16:38.932Z,1001.14
2019-03-10T03:17:38.913Z,1001.11
2019-03-10T03:18:38.916Z,1001.07
2019-03-10T03:19:38.895Z,1000.98
2019-03-10T03:20:38.888Z,1000.99
2019-03-10T03:21:43.397Z,1000.98
2019-03-10T03:22:38.859Z,1000.96
2019-03-10T03:23:38.855Z,1000.91
2019-03-10T03:24:38.834Z,1000.88
2019-03-10T03:25:38.823Z,1000.87
2019-03-10T03:26:38.807Z,1000.84
2019-03-10T03:27:38.804Z,1000.73
2019-03-10T03:28:38.808Z,1000.65
2019-03-10T03:29:38.776Z,1000.67
2019-03-10T03:30:38.778Z,1000.67
2019-03-10T03:31:38.753Z,1000.66
2019-03-10T03:32:38.752Z,1000.62
2019-03-10T03:33:38.741Z,1000.64
2019-03-10T03:34:38.716Z,1000.57
2019-03-10T03:35:38.707Z,1000.55
2019-03-10T03:36:38.701Z,1000.52
2019-03-10T03:37:38.690Z,1000.43
2019-03-10T03:38:38.696Z,1000.37
2019-03-10T03:39:38.658Z,1000.35
2019-03-10T03:40:38.654Z,1000.30
2019-03-10T03:41:38.634Z,1000.24
2019-03-10T03:42:38.625Z,1000.17
2019-03-10T03:43:38.654Z,1000.16
2019-03-10T03:44:38.604Z,1000.20
2019-03-10T03:45:38.593Z,1000.15
2019-03-10T03:46:38.585Z,1000.08
2019-03-10T03:47:38.567Z,1000.01
2019-03-10T03:48:38.562Z,999.99
2019-03-10T03:49:38.558Z,999.97
2019-03-10T03:50:38.533Z,999.92
2019-03-10T03:51:38.561Z,999.92
2019-03-10T03:52:38.509Z,999.88
2019-03-10T03:53:38.513Z,999.91
2019-03-10T03:54:38.505Z,999.84
2019-03-10T03:55:38.573Z,999.83
2019-03-10T03:56:38.478Z,999.85
2019-03-10T03:57:38.468Z,999.77
2019-03-10T03:58:38.482Z,999.78
2019-03-10T03:59:38.447Z,999.72
2019-03-10T04:00:38.425Z,999.68
2019-03-10T04:01:38.411Z,999.63
2019-03-10T04:02:38.402Z,999.59
2019-03-10T04:03:38.390Z,999.56
2019-03-10T04:04:38.396Z,999.56
2019-03-10T04:05:38.374Z,999.53
2019-03-10T04:06:38.354Z,999.48
2019-03-10T04:07:38.345Z,999.48
2019-03-10T04:08:38.338Z,999.57
2019-03-10T04:09:38.332Z,999.40
2019-03-10T04:10:38.308Z,999.36
2019-03-10T04:11:38.298Z,999.33
2019-03-10T04:12:38.346Z,999.35
2019-03-10T04:13:38.294Z,999.34
2019-03-10T04:14:38.278Z,999.32
2019-03-10T04:15:38.252Z,999.32
2019-03-10T04:16:38.245Z,999.28
2019-03-10T04:17:38.231Z,999.27
2019-03-10T04:18:38.225Z,999.24
2019-03-10T04:19:38.322Z,999.24
2019-03-10T04:20:38.203Z,999.15
2019-03-10T04:21:38.191Z,999.15
2019-03-10T04:22:38.176Z,999.19
2019-03-10T04:23:38.173Z,999.21
2019-03-10T04:24:38.159Z,999.24
2019-03-10T04:25:38.259Z,999.23
2019-03-10T04:26:38.140Z,999.17
2019-03-10T04:27:38.249Z,999.14
2019-03-10T04:28:38.110Z,999.16
2019-03-10T04:29:38.098Z,999.11
2019-03-10T04:30:38.101Z,999.08
2019-03-10T04:31:38.074Z,999.05
2019-03-10T04:32:38.062Z,999.03
2019-03-10T04:33:38.051Z,998.98
2019-03-10T04:34:38.043Z,998.94
2019-03-10T04:35:38.053Z,998.92
2019-03-10T04:36:38.020Z,998.96
2019-03-10T04:37:38.006Z,998.95
2019-03-10T04:38:38.006Z,998.96
2019-03-10T04:39:38.000Z,998.91
2019-03-10T04:40:37.986Z,998.93
2019-03-10T04:41:37.965Z,998.99
2019-03-10T04:42:37.957Z,998.96
2019-03-10T04:43:37.937Z,998.93
2019-03-10T04:44:37.927Z,998.83
2019-03-10T04:45:37.927Z,998.86
2019-03-10T04:46:37.907Z,998.77
2019-03-10T04:47:37.895Z,998.81
2019-03-10T04:48:37.914Z,998.77
2019-03-10T04:49:37.869Z,998.74
2019-03-10T04:50:37.878Z,998.70
2019-03-10T04:51:37.866Z,998.66
2019-03-10T04:52:37.837Z,998.68
2019-03-10T04:53:37.823Z,998.64
2019-03-10T04:54:37.813Z,998.60
2019-03-10T04:55:37.829Z,998.65
2019-03-10T04:56:37.804Z,998.56
2019-03-10T04:57:37.781Z,998.50
2019-03-10T04:58:37.772Z,998.51
2019-03-10T04:59:37.758Z,998.41
2019-03-10T05:00:37.747Z,998.40
2019-03-10T05:01:37.751Z,998.40
2019-03-10T05:02:37.732Z,998.29
2019-03-10T05:03:37.729Z,998.28
2019-03-10T05:04:37.702Z,998.28
2019-03-10T05:05:37.695Z,998.15
2019-03-10T05:06:37.699Z,998.11
2019-03-10T05:07:37.671Z,998.04
2019-03-10T05:08:37.655Z,997.98
2019-03-10T05:09:37.648Z,997.89
2019-03-10T05:10:37.643Z,997.79
2019-03-10T05:11:37.633Z,997.72
2019-03-10T05:12:37.612Z,997.70
2019-03-10T05:13:37.607Z,997.60
2019-03-10T05:14:37.589Z,997.55
2019-03-10T05:15:37.574Z,997.51
2019-03-10T05:16:37.576Z,997.43
2019-03-10T05:17:37.553Z,997.42
2019-03-10T05:18:37.545Z,997.43
2019-03-10T05:19:37.535Z,997.44
2019-03-10T05:20:37.521Z,997.41
2019-03-10T05:21:37.528Z,997.44
2019-03-10T05:22:37.500Z,997.40
2019-03-10T05:23:37.484Z,997.38
2019-03-10T05:24:37.472Z,997.37
2019-03-10T05:25:37.467Z,997.33
2019-03-10T05:26:37.465Z,997.38
2019-03-10T05:27:37.438Z,997.35
2019-03-10T05:28:37.440Z,997.33
2019-03-10T05:29:37.418Z,997.36
2019-03-10T05:30:37.414Z,997.43
2019-03-10T05:31:37.417Z,997.45
2019-03-10T05:32:37.382Z,997.45
2019-03-10T05:33:37.372Z,997.45
2019-03-10T05:34:37.361Z,997.44
2019-03-10T05:35:37.350Z,997.47
2019-03-10T05:36:37.342Z,997.46
2019-03-10T05:37:37.339Z,997.47
2019-03-10T05:38:37.315Z,997.46
2019-03-10T05:39:37.305Z,997.46
2019-03-10T05:40:37.293Z,997.31
2019-03-10T05:41:37.283Z,997.29
2019-03-10T05:42:37.282Z,997.21
2019-03-10T05:43:37.261Z,997.29
2019-03-10T05:44:37.252Z,997.26
2019-03-10T05:45:37.237Z,997.24
2019-03-10T05:46:37.235Z,997.25
2019-03-10T05:47:37.228Z,997.21
2019-03-10T05:48:37.209Z,997.17
2019-03-10T05:49:37.190Z,997.13
2019-03-10T05:50:37.182Z,997.09
2019-03-10T05:51:37.178Z,997.07
2019-03-10T05:52:37.170Z,997.03
2019-03-10T05:53:37.152Z,997.03
2019-03-10T05:54:37.143Z,997.04
2019-03-10T05:55:37.123Z,996.95
2019-03-10T05:56:37.129Z,996.97
2019-03-10T05:57:37.119Z,996.91
2019-03-10T05:58:37.092Z,996.83
2019-03-10T05:59:37.082Z,996.82
2019-03-10T06:00:42.674Z,996.80
2019-03-10T06:01:38.065Z,996.84
2019-03-10T06:02:37.061Z,996.86
2019-03-10T06:03:37.046Z,996.78
2019-03-10T06:04:37.021Z,996.67
2019-03-10T06:05:37.025Z,996.60
2019-03-10T06:06:37.000Z,996.64
2019-03-10T06:07:37.013Z,996.66
2019-03-10T06:08:36.981Z,996.67
2019-03-10T06:09:36.985Z,996.60
2019-03-10T06:10:36.959Z,996.59
2019-03-10T06:11:36.945Z,996.53
2019-03-10T06:12:36.936Z,996.50
2019-03-10T06:13:36.940Z,996.59
2019-03-10T06:14:36.912Z,996.55
2019-03-10T06:15:36.898Z,996.52
2019-03-10T06:16:36.886Z,996.47
2019-03-10T06:17:36.896Z,996.42
2019-03-10T06:18:36.876Z,996.41
2019-03-10T06:19:36.853Z,996.40
2019-03-10T06:20:36.856Z,996.45
2019-03-10T06:21:36.833Z,996.49
2019-03-10T06:22:36.819Z,996.41
2019-03-10T06:23:36.829Z,996.34
2019-03-10T06:24:36.795Z,996.18
2019-03-10T06:25:36.787Z,996.23
2019-03-10T06:26:36.785Z,996.24
2019-03-10T06:27:36.772Z,996.28
2019-03-10T06:28:36.776Z,996.27
2019-03-10T06:29:36.749Z,996.28
2019-03-10T06:30:36.731Z,996.23
2019-03-10T06:31:36.722Z,996.22
2019-03-10T06:32:36.709Z,996.16
2019-03-10T06:33:36.709Z,996.11
2019-03-10T06:34:36.693Z,996.08
2019-03-10T06:35:36.672Z,996.05
2019-03-10T06:36:36.661Z,996.04
2019-03-10T06:37:36.652Z,996.01
2019-03-10T06:38:36.653Z,995.99
2019-03-10T06:39:36.629Z,995.92
2019-03-10T06:40:36.617Z,995.87
2019-03-10T06:41:36.611Z,995.92
2019-03-10T06:42:36.597Z,995.85
2019-03-10T06:43:36.604Z,995.87
2019-03-10T06:44:36.575Z,995.86
2019-03-10T06:45:36.568Z,995.78
2019-03-10T06:46:36.550Z,995.85
2019-03-10T06:47:36.539Z,995.87
2019-03-10T06:48:36.531Z,995.80
2019-03-10T06:49:36.525Z,995.84
2019-03-10T06:50:36.502Z,995.87
2019-03-10T06:51:36.508Z,995.80
2019-03-10T06:52:36.482Z,995.77
2019-03-10T06:53:36.475Z,995.81
2019-03-10T06:54:36.473Z,995.80
2019-03-10T06:55:36.461Z,995.82
2019-03-10T06:56:36.447Z,995.70
2019-03-10T06:57:36.434Z,995.63
2019-03-10T06:58:36.416Z,995.71
2019-03-10T06:59:36.422Z,995.76
2019-03-10T07:00:36.391Z,995.70
2019-03-10T07:01:36.385Z,995.74
2019-03-10T07:02:36.368Z,995.73
2019-03-10T07:03:36.378Z,995.70
2019-03-10T07:04:36.382Z,995.65
2019-03-10T07:05:36.342Z,995.58
2019-03-10T07:06:36.326Z,995.56
2019-03-10T07:07:36.317Z,995.56
2019-03-10T07:08:36.305Z,995.59
2019-03-10T07:09:36.306Z,995.54
2019-03-10T07:10:36.279Z,995.66
2019-03-10T07:11:36.286Z,995.59
2019-03-10T07:12:36.255Z,995.66
2019-03-10T07:13:36.244Z,995.56
2019-03-10T07:14:36.276Z,995.62
2019-03-10T07:15:36.223Z,995.68
2019-03-10T07:16:36.211Z,995.60
2019-03-10T07:17:36.218Z,995.61
2019-03-10T07:18:36.189Z,995.53
2019-03-10T07:19:36.181Z,995.44
2019-03-10T07:20:36.177Z,995.42
2019-03-10T07:21:36.155Z,995.45
2019-03-10T07:22:36.143Z,995.43
2019-03-10T07:23:36.135Z,995.45
2019-03-10T07:24:36.124Z,995.41
2019-03-10T07:25:36.130Z,995.36
2019-03-10T07:26:36.105Z,995.32
2019-03-10T07:27:36.089Z,995.27
2019-03-10T07:28:36.089Z,995.24
2019-03-10T07:29:36.069Z,995.30
2019-03-10T07:30:36.070Z,995.26
2019-03-10T07:31:36.044Z,995.29
2019-03-10T07:32:36.035Z,995.31
2019-03-10T07:33:36.024Z,995.31
2019-03-10T07:34:36.029Z,995.28
2019-03-10T07:35:36.015Z,995.26
2019-03-10T07:36:35.991Z,995.32
2019-03-10T07:37:35.981Z,995.23
2019-03-10T07:38:35.968Z,995.27
2019-03-10T07:39:35.961Z,995.27
2019-03-10T07:40:35.955Z,995.26
2019-03-10T07:41:35.927Z,995.24
2019-03-10T07:42:35.928Z,995.25
2019-03-10T07:43:35.906Z,995.31
2019-03-10T07:44:35.894Z,995.28
2019-03-10T07:45:35.907Z,995.22
2019-03-10T07:46:35.883Z,995.23
2019-03-10T07:47:35.862Z,995.20
2019-03-10T07:48:35.878Z,995.16
2019-03-10T07:49:35.839Z,995.16
2019-03-10T07:50:35.840Z,995.14
2019-03-10T07:51:35.822Z,995.05
2019-03-10T07:52:35.808Z,995.05
2019-03-10T07:53:35.799Z,995.06
2019-03-10T07:54:35.783Z,995.03
2019-03-10T07:55:35.794Z,995.03
2019-03-10T07:56:35.815Z,995.00
2019-03-10T07:57:35.772Z,995.04
2019-03-10T07:58:35.749Z,995.03
2019-03-10T07:59:35.733Z,995.02
2019-03-10T08:00:35.722Z,994.94
2019-03-10T08:01:35.718Z,995.02
2019-03-10T08:02:35.697Z,994.95
2019-03-10T08:03:35.693Z,995.02
2019-03-10T08:04:35.669Z,995.02
2019-03-10T08:05:35.659Z,995.03
2019-03-10T08:06:35.658Z,994.98
2019-03-10T08:07:35.634Z,995.01
2019-03-10T08:08:35.630Z,994.97
2019-03-10T08:09:35.612Z,995.01
2019-03-10T08:10:35.605Z,995.04
2019-03-10T08:11:35.604Z,994.93
2019-03-10T08:12:35.579Z,995.00
2019-03-10T08:13:35.571Z,995.09
2019-03-10T08:14:35.559Z,995.00
2019-03-10T08:15:35.545Z,995.01
2019-03-10T08:16:35.560Z,994.95
2019-03-10T08:17:35.528Z,994.98
2019-03-10T08:18:35.515Z,994.95
2019-03-10T08:19:35.501Z,995.01
2019-03-10T08:20:35.492Z,994.95
2019-03-10T08:21:35.480Z,995.01
2019-03-10T08:22:35.481Z,994.91
2019-03-10T08:23:35.466Z,994.90
2019-03-10T08:24:35.451Z,994.85
2019-03-10T08:25:35.432Z,994.87
2019-03-10T08:26:35.423Z,994.83
2019-03-10T08:27:35.429Z,994.84
2019-03-10T08:28:35.399Z,994.88
2019-03-10T08:29:35.392Z,994.89
2019-03-10T08:30:35.376Z,994.92
2019-03-10T08:31:35.374Z,994.98
2019-03-10T08:32:35.369Z,994.91
2019-03-10T08:33:35.347Z,994.84
2019-03-10T08:34:35.337Z,994.77
2019-03-10T08:35:35.321Z,994.79
2019-03-10T08:36:35.309Z,994.82
2019-03-10T08:37:35.313Z,994.84
2019-03-10T08:38:35.288Z,994.75
2019-03-10T08:39:35.281Z,994.75
2019-03-10T08:40:35.265Z,994.75
2019-03-10T08:41:35.254Z,994.68
2019-03-10T08:42:35.255Z,994.79
2019-03-10T08:43:35.233Z,994.69
2019-03-10T08:44:35.223Z,994.71
2019-03-10T08:45:35.210Z,994.79
2019-03-10T08:46:35.201Z,994.75
2019-03-10T08:47:35.201Z,994.71
2019-03-10T08:48:35.180Z,994.73
2019-03-10T08:49:44.711Z,994.74
2019-03-10T08:50:36.151Z,994.58
2019-03-10T08:51:35.140Z,994.63
2019-03-10T08:52:35.144Z,994.61
2019-03-10T08:53:35.124Z,994.58
2019-03-10T08:54:35.109Z,994.53
2019-03-10T08:55:35.097Z,994.56
2019-03-10T08:56:35.096Z,994.50
2019-03-10T08:57:35.085Z,994.55
2019-03-10T08:58:35.065Z,994.58
2019-03-10T08:59:35.051Z,994.49
2019-03-10T09:00:35.036Z,994.50
2019-03-10T09:01:35.044Z,994.51
2019-03-10T09:02:35.049Z,994.43
2019-03-10T09:03:35.008Z,994.43
2019-03-10T09:04:34.993Z,994.33
2019-03-10T09:05:34.982Z,994.44
2019-03-10T09:06:34.970Z,994.33
2019-03-10T09:07:34.961Z,994.34
2019-03-10T09:08:34.963Z,994.43
2019-03-10T09:09:34.935Z,994.33
2019-03-10T09:10:34.923Z,994.30
2019-03-10T09:11:34.915Z,994.35
2019-03-10T09:12:34.904Z,994.43
2019-03-10T09:13:34.913Z,994.48
2019-03-10T09:14:34.885Z,994.40
2019-03-10T09:15:34.868Z,994.46
2019-03-10T09:16:34.859Z,994.54
2019-03-10T09:17:34.847Z,994.40
2019-03-10T09:18:34.844Z,994.45
2019-03-10T09:19:34.822Z,994.39
2019-03-10T09:20:34.813Z,994.50
2019-03-10T09:21:34.801Z,994.47
2019-03-10T09:22:34.790Z,994.55
2019-03-10T09:23:34.788Z,994.62
2019-03-10T09:24:34.765Z,994.58
2019-03-10T09:25:34.754Z,994.55
2019-03-10T09:26:34.749Z,994.53
2019-03-10T09:27:34.733Z,994.46
2019-03-10T09:28:34.731Z,994.36
2019-03-10T09:29:34.713Z,994.36
2019-03-10T09:30:34.699Z,994.34
2019-03-10T09:31:34.697Z,994.35
2019-03-10T09:32:36.765Z,994.38
2019-03-10T09:33:34.698Z,994.41
2019-03-10T09:34:34.653Z,994.38
2019-03-10T09:35:34.649Z,994.37
2019-03-10T09:36:34.630Z,994.28
2019-03-10T09:37:34.619Z,994.33
2019-03-10T09:38:34.607Z,994.23
2019-03-10T09:39:34.610Z,994.15
2019-03-10T09:40:34.590Z,994.12
2019-03-10T09:41:34.576Z,994.22
2019-03-10T09:42:34.579Z,994.30
2019-03-10T09:43:34.562Z,994.17
2019-03-10T09:44:34.567Z,994.22
2019-03-10T09:45:34.527Z,994.19
2019-03-10T09:46:34.521Z,994.24
2019-03-10T09:47:34.512Z,994.21
2019-03-10T09:48:34.497Z,994.20
2019-03-10T09:49:34.499Z,994.10
2019-03-10T09:50:34.474Z,994.25
2019-03-10T09:51:34.461Z,994.09
2019-03-10T09:52:34.452Z,994.30
2019-03-10T09:53:34.442Z,994.21
2019-03-10T09:54:34.458Z,994.35
2019-03-10T09:55:34.417Z,994.35
2019-03-10T09:56:34.404Z,994.21
2019-03-10T09:57:34.395Z,994.11
2019-03-10T09:58:34.387Z,994.06
2019-03-10T09:59:34.382Z,994.12
2019-03-10T10:00:34.370Z,994.03
2019-03-10T10:01:34.348Z,994.07
2019-03-10T10:02:34.336Z,994.09
2019-03-10T10:03:34.324Z,994.01
2019-03-10T10:04:34.340Z,994.04
2019-03-10T10:05:34.306Z,994.03
2019-03-10T10:06:34.292Z,993.82
2019-03-10T10:07:34.282Z,993.86
2019-03-10T10:08:34.273Z,994.15
2019-03-10T10:09:34.258Z,994.04
2019-03-10T10:10:34.271Z,994.05
2019-03-10T10:11:34.237Z,994.02
2019-03-10T10:12:34.229Z,994.08
2019-03-10T10:13:34.214Z,994.08
2019-03-10T10:14:34.201Z,993.98
2019-03-10T10:15:34.210Z,993.98
2019-03-10T10:16:34.177Z,994.05
2019-03-10T10:17:34.165Z,993.98
2019-03-10T10:18:34.185Z,993.82
2019-03-10T10:19:34.153Z,993.84
2019-03-10T10:20:34.152Z,993.88
2019-03-10T10:21:34.122Z,993.81
2019-03-10T10:22:34.114Z,993.76
2019-03-10T10:23:34.112Z,993.71
2019-03-10T10:24:34.089Z,993.91
2019-03-10T10:25:34.094Z,993.71
2019-03-10T10:26:34.064Z,993.74
2019-03-10T10:27:34.066Z,993.93
2019-03-10T10:28:34.061Z,993.89
2019-03-10T10:29:34.084Z,993.92
2019-03-10T10:30:34.048Z,994.00
2019-03-10T10:31:34.059Z,993.80
2019-03-10T10:32:33.999Z,993.82
2019-03-10T10:33:33.986Z,993.88
2019-03-10T10:34:33.976Z,993.75
2019-03-10T10:35:33.973Z,993.97
2019-03-10T10:36:33.956Z,993.95
2019-03-10T10:37:35.543Z,993.99
2019-03-10T10:38:33.930Z,993.73
2019-03-10T10:39:33.919Z,993.72
2019-03-10T10:40:33.935Z,993.82
2019-03-10T10:41:33.896Z,993.87
2019-03-10T10:42:33.882Z,993.91
2019-03-10T10:43:33.873Z,993.98
2019-03-10T10:44:33.864Z,993.81
2019-03-10T10:45:33.861Z,993.88
2019-03-10T10:46:33.852Z,993.85
2019-03-10T10:47:33.833Z,993.90
2019-03-10T10:48:33.818Z,993.86
2019-03-10T10:49:33.832Z,993.84
2019-03-10T10:50:33.795Z,993.91
2019-03-10T10:51:33.796Z,993.80
2019-03-10T10:52:33.781Z,993.88
2019-03-10T10:53:33.777Z,993.86
2019-03-10T10:54:33.767Z,993.95
2019-03-10T10:55:33.752Z,993.88
2019-03-10T10:56:33.748Z,993.94
2019-03-10T10:57:33.736Z,993.88
2019-03-10T10:58:33.711Z,993.88
2019-03-10T10:59:33.723Z,993.73
2019-03-10T11:00:33.685Z,993.84
2019-03-10T11:01:33.685Z,993.82
2019-03-10T11:02:33.662Z,993.90
2019-03-10T11:03:33.650Z,993.83
2019-03-10T11:04:33.650Z,993.84
2019-03-10T11:05:33.633Z,993.75
2019-03-10T11:06:33.637Z,993.90
2019-03-10T11:07:33.609Z,993.82
2019-03-10T11:08:33.596Z,993.87
2019-03-10T11:09:33.584Z,993.89
2019-03-10T11:10:33.592Z,993.82
2019-03-10T11:11:33.592Z,993.82
2019-03-10T11:12:33.571Z,993.89
2019-03-10T11:13:33.537Z,993.73
2019-03-10T11:14:33.537Z,993.67
2019-03-10T11:15:33.519Z,993.75
2019-03-10T11:16:33.504Z,993.76
2019-03-10T11:17:33.508Z,993.70
2019-03-10T11:18:33.488Z,993.60
2019-03-10T11:19:33.472Z,993.57
2019-03-10T11:20:33.461Z,993.54
2019-03-10T11:21:33.456Z,993.57
2019-03-10T11:22:33.450Z,993.63
2019-03-10T11:23:33.429Z,993.57
2019-03-10T11:24:33.414Z,993.54
2019-03-10T11:25:33.403Z,993.58
2019-03-10T11:26:33.401Z,993.51
2019-03-10T11:27:33.396Z,993.59
2019-03-10T11:28:33.368Z,993.45
2019-03-10T11:29:33.359Z,993.38
2019-03-10T11:30:33.349Z,993.48
2019-03-10T11:31:33.336Z,993.48
2019-03-10T11:32:34.285Z,993.50
2019-03-10T11:33:33.325Z,993.49
2019-03-10T11:34:33.305Z,993.51
2019-03-10T11:35:33.350Z,993.54
2019-03-10T11:36:33.280Z,993.44
2019-03-10T11:37:33.282Z,993.39
2019-03-10T11:38:33.258Z,993.42
2019-03-10T11:39:33.249Z,993.42
2019-03-10T11:40:33.239Z,993.24
2019-03-10T11:41:34.288Z,993.46
2019-03-10T11:42:33.225Z,993.21
2019-03-10T11:43:33.211Z,993.28
2019-03-10T11:44:33.195Z,993.25
2019-03-10T11:45:33.204Z,993.31
2019-03-10T11:46:33.169Z,993.20
2019-03-10T11:47:33.258Z,993.18
2019-03-10T11:48:33.196Z,993.02
2019-03-10T11:49:33.134Z,993.03
2019-03-10T11:50:33.139Z,992.95
2019-03-10T11:51:33.118Z,993.01
2019-03-10T11:52:33.117Z,993.13
2019-03-10T11:53:33.091Z,993.04
2019-03-10T11:54:33.105Z,993.15
2019-03-10T11:55:33.066Z,992.94
2019-03-10T11:56:33.055Z,993.19
2019-03-10T11:57:33.065Z,993.15
2019-03-10T11:58:33.042Z,993.07
2019-03-10T11:59:33.023Z,992.96
2019-03-10T12:00:33.018Z,992.78
2019-03-10T12:01:33.002Z,993.14
2019-03-10T12:02:32.988Z,993.06
2019-03-10T12:03:32.991Z,993.03
2019-03-10T12:04:32.982Z,993.02
2019-03-10T12:05:32.951Z,992.80
2019-03-10T12:06:32.953Z,992.95
2019-03-10T12:07:32.937Z,992.94
2019-03-10T12:08:32.933Z,992.97
2019-03-10T12:09:32.909Z,992.98
2019-03-10T12:10:32.895Z,992.87
2019-03-10T12:11:32.891Z,992.91
2019-03-10T12:12:32.873Z,992.80
2019-03-10T12:13:32.877Z,992.96
2019-03-10T12:14:32.855Z,992.49
2019-03-10T12:15:32.844Z,992.68
2019-03-10T12:16:32.828Z,992.98
2019-03-10T12:17:32.822Z,992.89
2019-03-10T12:18:32.826Z,992.69
2019-03-10T12:19:32.797Z,992.58
2019-03-10T12:20:32.783Z,992.58
2019-03-10T12:21:32.773Z,992.64